createdAt,value
2024-01-03T00:03:43.704Z,51.23
2024-01-03T00:08:39.402Z,51.28
2024-01-03T00:13:31.423Z,51.36
2024-01-03T00:18:35.085Z,51.12
2024-01-03T00:23:38.159Z,51.04
2024-01-03T00:28:30.617Z,52.45
2024-01-03T00:33:22.646Z,51.17
2024-01-03T00:38:15.240Z,51.64
2024-01-03T00:43:06.936Z,51.06
2024-01-03T00:47:58.799Z,51.03
2024-01-03T00:52:50.711Z,51.05
2024-01-03T00:57:42.734Z,50.98
2024-01-03T01:02:34.604Z,51.07
2024-01-03T01:07:26.435Z,51.00
2024-01-03T01:12:18.283Z,51.15
2024-01-03T01:17:09.979Z,50.97
2024-01-03T01:22:01.722Z,51.09
2024-01-03T01:26:53.428Z,50.88
2024-01-03T01:31:45.431Z,50.81
2024-01-03T01:36:37.296Z,50.87
2024-01-03T01:41:29.207Z,51.03
2024-01-03T01:46:21.451Z,50.86
2024-01-03T01:51:14.271Z,50.92
2024-01-03T01:56:06.789Z,50.91
2024-01-03T02:00:59.491Z,50.89
2024-01-03T02:05:51.416Z,50.88
2024-01-03T02:10:43.339Z,50.88
2024-01-03T02:15:35.192Z,50.87
2024-01-03T02:20:32.565Z,50.83
2024-01-03T02:25:24.291Z,50.89
2024-01-03T02:30:16.588Z,50.78
2024-01-03T02:35:08.687Z,50.82
2024-01-03T02:40:00.487Z,50.67
2024-01-03T02:44:52.229Z,50.68
2024-01-03T02:49:44.049Z,50.75
2024-01-03T02:54:35.844Z,50.71
2024-01-03T02:59:27.592Z,50.65
2024-01-03T03:04:19.460Z,50.51
2024-01-03T03:09:16.726Z,50.73
2024-01-03T03:14:11.195Z,50.63
2024-01-03T03:19:05.058Z,50.59
2024-01-03T03:23:56.887Z,50.80
2024-01-03T03:28:48.540Z,50.56
2024-01-03T03:33:40.661Z,50.73
2024-01-03T03:38:32.600Z,50.73
2024-01-03T03:43:24.313Z,50.71
2024-01-03T03:48:16.463Z,50.92
2024-01-03T03:53:11.918Z,50.79
2024-01-03T03:58:03.804Z,50.30
2024-01-03T04:02:56.460Z,50.15
2024-01-03T04:07:48.389Z,50.23
2024-01-03T04:12:40.164Z,50.19
2024-01-03T04:17:31.950Z,49.97
2024-01-03T04:22:23.736Z,49.86
2024-01-03T04:27:15.460Z,49.70
2024-01-03T04:32:08.507Z,49.92
2024-01-03T04:37:00.313Z,49.40
2024-01-03T04:41:52.094Z,49.45
2024-01-03T04:46:44.805Z,49.19
2024-01-03T04:51:36.572Z,49.23
2024-01-03T04:56:30.800Z,49.24
2024-01-03T05:01:22.722Z,49.12
2024-01-03T05:06:14.708Z,49.39
2024-01-03T05:11:06.432Z,49.39
2024-01-03T05:15:58.989Z,49.28
2024-01-03T05:20:50.697Z,49.30
2024-01-03T05:25:42.454Z,49.41
2024-01-03T05:30:34.241Z,49.50
2024-01-03T05:35:26.106Z,49.42
2024-01-03T05:40:19.557Z,49.57
2024-01-03T05:45:12.335Z,49.39
2024-01-03T05:50:04.430Z,49.41
2024-01-03T05:54:56.542Z,49.62
2024-01-03T05:59:48.364Z,49.92
2024-01-03T06:04:40.292Z,49.65
2024-01-03T06:09:32.103Z,49.68
2024-01-03T06:14:23.888Z,49.70
2024-01-03T06:19:15.894Z,49.58
2024-01-03T06:24:07.803Z,49.77
2024-01-03T06:28:59.591Z,49.77
2024-01-03T06:33:51.900Z,49.64
2024-01-03T06:38:43.922Z,45.50
2024-01-03T06:43:35.800Z,44.92
2024-01-03T06:48:27.757Z,47.42
2024-01-03T06:53:19.900Z,47.99
2024-01-03T06:58:11.783Z,47.99
2024-01-03T07:03:04.611Z,47.97
2024-01-03T07:07:57.656Z,47.91
2024-01-03T07:12:49.432Z,48.07
2024-01-03T07:17:41.225Z,48.22
2024-01-03T07:22:33.009Z,48.01
2024-01-03T07:27:24.697Z,48.22
2024-01-03T07:32:16.627Z,48.15
2024-01-03T07:37:08.584Z,48.30
2024-01-03T07:42:00.638Z,48.28
2024-01-03T07:46:52.345Z,48.32
2024-01-03T07:51:45.967Z,48.10
2024-01-03T07:56:38.069Z,48.45
2024-01-03T08:01:30.472Z,48.25
2024-01-03T08:06:22.404Z,48.49
2024-01-03T08:11:14.445Z,48.32
2024-01-03T08:16:07.948Z,48.51
2024-01-03T08:20:59.813Z,48.47
2024-01-03T08:25:51.595Z,48.55
2024-01-03T08:30:43.420Z,48.52
2024-01-03T08:35:35.176Z,48.56
2024-01-03T08:40:26.888Z,48.62
2024-01-03T08:45:18.614Z,48.69
2024-01-03T08:50:10.933Z,48.69
2024-01-03T08:55:02.757Z,48.66
2024-01-03T08:59:54.592Z,48.74
2024-01-03T09:04:46.304Z,48.89
2024-01-03T09:09:41.289Z,48.65
2024-01-03T09:14:33.150Z,49.00
2024-01-03T09:19:25.043Z,48.87
2024-01-03T09:24:18.935Z,49.02
2024-01-03T09:29:10.818Z,49.02
2024-01-03T09:34:02.846Z,48.92
2024-01-03T09:38:54.859Z,48.95
2024-01-03T09:43:47.137Z,49.07
2024-01-03T09:48:51.461Z,49.03
2024-01-03T09:53:44.163Z,49.12
2024-01-03T09:58:36.678Z,49.01
2024-01-03T10:03:28.608Z,49.05
2024-01-03T10:08:21.115Z,48.93
2024-01-03T10:13:28.675Z,48.98
2024-01-03T10:18:23.096Z,49.04
2024-01-03T10:23:19.743Z,49.21
2024-01-03T10:28:13.344Z,49.86
2024-01-03T10:33:07.126Z,49.43
2024-01-03T10:38:00.797Z,49.90
2024-01-03T10:42:53.147Z,49.86
2024-01-03T10:47:45.258Z,49.96
2024-01-03T10:52:40.658Z,50.02
2024-01-03T10:57:35.990Z,50.04
2024-01-03T11:02:36.266Z,49.83
2024-01-03T11:07:52.099Z,49.96
2024-01-03T11:12:43.901Z,49.29
2024-01-03T11:17:35.796Z,49.24
2024-01-03T11:22:57.811Z,49.08
2024-01-03T11:27:49.612Z,49.24
2024-01-03T11:32:43.715Z,49.40
2024-01-03T11:37:38.719Z,49.32
2024-01-03T11:42:31.603Z,49.15
2024-01-03T11:47:23.564Z,49.11
2024-01-03T11:52:15.861Z,48.92
2024-01-03T11:57:11.166Z,48.95
2024-01-03T12:02:02.987Z,48.89
2024-01-03T12:06:58.781Z,48.71
2024-01-03T12:11:50.865Z,48.94
2024-01-03T12:16:50.254Z,48.85
2024-01-03T12:21:57.762Z,48.78
2024-01-03T12:26:50.737Z,48.65
2024-01-03T12:31:42.605Z,48.60
2024-01-03T12:36:34.561Z,48.81
2024-01-03T12:41:26.427Z,48.86
2024-01-03T12:46:18.450Z,48.78
2024-01-03T12:51:10.854Z,48.79
2024-01-03T12:56:02.702Z,48.38
2024-01-03T13:00:54.593Z,48.80
2024-01-03T13:05:46.461Z,48.73
2024-01-03T13:10:38.870Z,48.78
2024-01-03T13:15:32.142Z,48.63
2024-01-03T13:20:24.016Z,49.19
2024-01-03T13:25:16.065Z,48.89
2024-01-03T13:30:09.518Z,48.64
2024-01-03T13:35:01.922Z,48.73
2024-01-03T13:39:53.872Z,48.77
2024-01-03T13:44:46.056Z,48.53
2024-01-03T13:49:38.112Z,48.69
2024-01-03T13:54:29.954Z,48.40
2024-01-03T13:59:22.986Z,48.50
2024-01-03T14:04:15.761Z,48.54
2024-01-03T14:09:08.283Z,48.37
2024-01-03T14:14:01.509Z,48.42
2024-01-03T14:18:55.006Z,48.34
2024-01-03T14:23:49.539Z,48.38
2024-01-03T14:28:41.382Z,48.39
2024-01-03T14:33:33.344Z,48.35
2024-01-03T14:38:25.491Z,48.37
2024-01-03T14:43:46.461Z,48.17
2024-01-03T14:48:39.437Z,47.61
2024-01-03T14:53:32.270Z,48.15
2024-01-03T14:58:28.007Z,48.28
2024-01-03T15:03:20.756Z,48.64
2024-01-03T15:08:13.499Z,48.55
2024-01-03T15:13:05.249Z,48.48
2024-01-03T15:17:57.035Z,48.17
2024-01-03T15:22:49.171Z,47.34
2024-01-03T15:27:41.005Z,47.04
2024-01-03T15:32:32.918Z,46.86
2024-01-03T15:37:24.838Z,46.62
2024-01-03T15:42:19.855Z,46.23
2024-01-03T15:47:11.858Z,46.18
2024-01-03T15:52:08.593Z,45.91
2024-01-03T15:57:00.902Z,46.24
2024-01-03T16:01:52.829Z,46.68
2024-01-03T16:06:44.951Z,46.72
2024-01-03T16:11:36.886Z,46.82
2024-01-03T16:16:28.611Z,46.86
2024-01-03T16:21:20.434Z,46.44
2024-01-03T16:26:12.192Z,46.50
2024-01-03T16:31:04.727Z,46.40
2024-01-03T16:35:56.548Z,46.43
2024-01-03T16:40:48.402Z,46.46
2024-01-03T16:45:40.110Z,46.20
2024-01-03T16:50:32.009Z,46.25
2024-01-03T16:55:23.890Z,46.01
2024-01-03T17:00:18.456Z,43.62
2024-01-03T17:05:12.246Z,45.10
2024-01-03T17:10:04.707Z,45.44
2024-01-03T17:14:56.676Z,45.42
2024-01-03T17:19:50.068Z,45.22
2024-01-03T17:24:41.972Z,45.35
2024-01-03T17:29:33.796Z,45.27
2024-01-03T17:34:25.644Z,45.43
2024-01-03T17:39:17.555Z,45.19
2024-01-03T17:44:09.443Z,44.89
2024-01-03T17:49:01.547Z,45.01
2024-01-03T17:53:56.268Z,44.94
2024-01-03T17:58:48.714Z,45.06
2024-01-03T18:03:40.672Z,44.91
2024-01-03T18:08:32.702Z,45.19
2024-01-03T18:13:24.741Z,44.97
2024-01-03T18:18:16.761Z,45.19
2024-01-03T18:23:09.903Z,45.07
2024-01-03T18:28:01.652Z,45.08
2024-01-03T18:32:56.771Z,45.40
2024-01-03T18:37:48.662Z,44.87
2024-01-03T18:42:40.387Z,44.88
2024-01-03T18:47:35.269Z,44.87
2024-01-03T18:52:27.369Z,45.11
2024-01-03T18:57:19.228Z,45.18
2024-01-03T19:02:15.536Z,45.12
2024-01-03T19:07:07.316Z,45.03
2024-01-03T19:11:59.199Z,45.11
2024-01-03T19:16:51.283Z,44.94
2024-01-03T19:21:43.098Z,45.16
2024-01-03T19:26:34.861Z,45.05
2024-01-03T19:31:26.610Z,45.07
2024-01-03T19:36:18.608Z,44.93
2024-01-03T19:41:10.373Z,43.96
2024-01-03T19:46:02.217Z,43.96
2024-01-03T19:50:55.763Z,44.22
2024-01-03T19:55:47.527Z,44.29
2024-01-03T20:00:39.287Z,44.46
2024-01-03T20:05:31.259Z,44.50
2024-01-03T20:10:23.054Z,44.72
2024-01-03T20:15:14.898Z,44.69
2024-01-03T20:20:07.100Z,44.85
2024-01-03T20:25:00.532Z,44.81
2024-01-03T20:29:52.570Z,44.90
2024-01-03T20:34:45.154Z,44.96
2024-01-03T20:39:36.994Z,44.70
2024-01-03T20:44:28.748Z,44.85
2024-01-03T20:49:20.546Z,42.72
2024-01-03T20:54:12.963Z,44.37
2024-01-03T20:59:04.674Z,44.63
2024-01-03T21:03:56.672Z,44.68
2024-01-03T21:08:48.612Z,44.86
2024-01-03T21:13:43.352Z,44.71
2024-01-03T21:18:36.246Z,44.89
2024-01-03T21:23:28.346Z,44.79
2024-01-03T21:28:20.103Z,45.18
2024-01-03T21:33:12.760Z,45.23
2024-01-03T21:38:04.907Z,44.83
2024-01-03T21:42:56.727Z,44.90
2024-01-03T21:47:48.575Z,44.37
2024-01-03T21:52:43.673Z,44.43
2024-01-03T21:57:37.740Z,44.18
2024-01-03T22:02:30.690Z,43.42
2024-01-03T22:07:22.605Z,43.37
2024-01-03T22:12:14.498Z,42.79
2024-01-03T22:17:06.280Z,43.85
2024-01-03T22:21:58.071Z,42.65
2024-01-03T22:26:50.101Z,42.40
2024-01-03T22:31:41.909Z,42.24
2024-01-03T22:36:33.923Z,42.34
2024-01-03T22:41:25.769Z,42.10
2024-01-03T22:46:19.147Z,42.17
2024-01-03T22:51:10.928Z,42.11
2024-01-03T22:56:02.965Z,41.65
2024-01-03T23:00:54.803Z,41.78
2024-01-03T23:05:46.809Z,41.70
2024-01-03T23:10:38.646Z,41.49
2024-01-03T23:15:30.458Z,41.79
2024-01-03T23:20:22.777Z,41.99
2024-01-03T23:25:14.936Z,42.38
2024-01-03T23:30:08.125Z,42.25
2024-01-03T23:35:00.032Z,42.37
2024-01-03T23:39:51.871Z,42.76
2024-01-03T23:44:43.728Z,43.01
2024-01-03T23:49:35.670Z,43.10
2024-01-03T23:54:27.631Z,42.96
2024-01-03T23:59:19.506Z,43.40
